createdAt,value
2023-06-20T00:00:42.655Z,88641.00
2023-06-20T00:01:42.664Z,88635.00
2023-06-20T00:02:42.789Z,88639.00
2023-06-20T00:03:42.796Z,88637.00
2023-06-20T00:04:42.766Z,88637.00
2023-06-20T00:05:42.751Z,88641.00
2023-06-20T00:06:42.769Z,88639.00
2023-06-20T00:07:42.790Z,88641.00
2023-06-20T00:08:42.826Z,88639.00
2023-06-20T00:09:42.837Z,88637.00
2023-06-20T00:10:42.860Z,88635.00
2023-06-20T00:11:42.893Z,88637.00
2023-06-20T00:12:42.900Z,88641.00
2023-06-20T00:13:42.926Z,88639.00
2023-06-20T00:14:42.968Z,88639.00
2023-06-20T00:15:42.955Z,88639.00
2023-06-20T00:16:42.976Z,88641.00
2023-06-20T00:17:43.047Z,88644.00
2023-06-20T00:18:43.010Z,88648.00
2023-06-20T00:19:43.032Z,88641.00
2023-06-20T00:20:43.065Z,88648.00
2023-06-20T00:21:43.072Z,88644.00
2023-06-20T00:22:43.102Z,88644.00
2023-06-20T00:23:43.086Z,88639.00
2023-06-20T00:24:43.116Z,88642.00
2023-06-20T00:25:43.044Z,88644.00
2023-06-20T00:26:43.049Z,88642.00
2023-06-20T00:27:43.028Z,88642.00
2023-06-20T00:28:43.037Z,88644.00
2023-06-20T00:29:43.016Z,88642.00
2023-06-20T00:30:42.996Z,88642.00
2023-06-20T00:31:42.965Z,88642.00
2023-06-20T00:32:42.993Z,88644.00
2023-06-20T00:33:42.966Z,88641.00
2023-06-20T00:34:42.930Z,88642.00
2023-06-20T00:35:42.902Z,88637.00
2023-06-20T00:36:42.889Z,88635.00
2023-06-20T00:37:42.871Z,88635.00
2023-06-20T00:38:42.863Z,88633.00
2023-06-20T00:39:42.840Z,88633.00
2023-06-20T00:40:42.851Z,88635.00
2023-06-20T00:41:42.868Z,88635.00
2023-06-20T00:42:42.883Z,88635.00
2023-06-20T00:43:42.887Z,88633.00
2023-06-20T00:44:42.912Z,88633.00
2023-06-20T00:45:42.945Z,88631.00
2023-06-20T00:46:42.916Z,88633.00
2023-06-20T00:47:42.991Z,88631.00
2023-06-20T00:48:42.912Z,88631.00
2023-06-20T00:49:42.930Z,88625.00
2023-06-20T00:50:42.930Z,88621.00
2023-06-20T00:51:42.951Z,88617.00
2023-06-20T00:52:42.958Z,88619.00
2023-06-20T00:53:42.951Z,88621.00
2023-06-20T00:54:42.959Z,88623.00
2023-06-20T00:55:42.967Z,88631.00
2023-06-20T00:56:42.957Z,88633.00
2023-06-20T00:57:42.959Z,88631.00
2023-06-20T00:58:42.968Z,88633.00
2023-06-20T00:59:42.974Z,88635.00
2023-06-20T01:00:42.989Z,88633.00
2023-06-20T01:01:43.056Z,88631.00
2023-06-20T01:02:43.066Z,88635.00
2023-06-20T01:03:43.071Z,88635.00
2023-06-20T01:04:42.998Z,88637.00
2023-06-20T01:05:43.001Z,88637.00
2023-06-20T01:06:43.019Z,88633.00
2023-06-20T01:07:43.026Z,88637.00
2023-06-20T01:08:43.016Z,88635.00
2023-06-20T01:09:43.016Z,88635.00
2023-06-20T01:10:43.020Z,88637.00
2023-06-20T01:11:43.009Z,88635.00
2023-06-20T01:12:43.012Z,88635.00
2023-06-20T01:13:43.008Z,88633.00
2023-06-20T01:14:43.024Z,88641.00
2023-06-20T01:15:43.044Z,88633.00
2023-06-20T01:16:43.018Z,88635.00
2023-06-20T01:17:43.093Z,88633.00
2023-06-20T01:18:43.020Z,88637.00
2023-06-20T01:19:43.038Z,88637.00
2023-06-20T01:20:43.038Z,88639.00
2023-06-20T01:21:43.037Z,88641.00
2023-06-20T01:22:43.045Z,88642.00
2023-06-20T01:23:43.068Z,88644.00
2023-06-20T01:24:43.128Z,88644.00
2023-06-20T01:25:43.076Z,88642.00
2023-06-20T01:26:43.069Z,88642.00
2023-06-20T01:27:43.067Z,88642.00
2023-06-20T01:28:43.082Z,88637.00
2023-06-20T01:29:43.083Z,88633.00
2023-06-20T01:30:43.095Z,88633.00
2023-06-20T01:31:43.088Z,88633.00
2023-06-20T01:32:43.136Z,88635.00
2023-06-20T01:33:43.103Z,88635.00
2023-06-20T01:34:43.128Z,88635.00
2023-06-20T01:35:43.118Z,88637.00
2023-06-20T01:36:43.126Z,88637.00
2023-06-20T01:37:43.122Z,88637.00
2023-06-20T01:38:43.136Z,88635.00
2023-06-20T01:39:43.118Z,88635.00
2023-06-20T01:40:43.098Z,88635.00
2023-06-20T01:41:43.068Z,88637.00
2023-06-20T01:42:43.064Z,88639.00
2023-06-20T01:43:43.035Z,88641.00
2023-06-20T01:44:43.035Z,88639.00
2023-06-20T01:45:42.996Z,88639.00
2023-06-20T01:46:43.074Z,88646.00
2023-06-20T01:47:43.029Z,88644.00
2023-06-20T01:48:42.935Z,88646.00
2023-06-20T01:49:42.907Z,88644.00
2023-06-20T01:50:42.919Z,88644.00
2023-06-20T01:51:42.867Z,88644.00
2023-06-20T01:52:42.845Z,88644.00
2023-06-20T01:53:42.840Z,88646.00
2023-06-20T01:54:42.802Z,88644.00
2023-06-20T01:55:42.784Z,88644.00
2023-06-20T01:56:42.768Z,88648.00
2023-06-20T01:57:42.746Z,88646.00
2023-06-20T01:58:42.764Z,88648.00
2023-06-20T01:59:42.765Z,88646.00
2023-06-20T02:00:42.681Z,88644.00
2023-06-20T02:01:42.655Z,88641.00
2023-06-20T02:02:42.719Z,88641.00
2023-06-20T02:03:42.741Z,88639.00
2023-06-20T02:04:42.681Z,88641.00
2023-06-20T02:05:42.684Z,88646.00
2023-06-20T02:06:42.685Z,88641.00
2023-06-20T02:07:42.683Z,88641.00
2023-06-20T02:08:42.698Z,88642.00
2023-06-20T02:09:42.688Z,88633.00
2023-06-20T02:10:42.706Z,88635.00
2023-06-20T02:11:42.696Z,88631.00
2023-06-20T02:12:42.718Z,88633.00
2023-06-20T02:13:42.704Z,88635.00
2023-06-20T02:14:42.733Z,88633.00
2023-06-20T02:15:42.734Z,88631.00
2023-06-20T02:16:42.750Z,88633.00
2023-06-20T02:17:42.779Z,88631.00
2023-06-20T02:18:42.731Z,88637.00
2023-06-20T02:19:42.758Z,88631.00
2023-06-20T02:20:42.770Z,88633.00
2023-06-20T02:21:42.752Z,88631.00
2023-06-20T02:22:42.772Z,88629.00
2023-06-20T02:23:42.775Z,88633.00
2023-06-20T02:24:42.861Z,88639.00
2023-06-20T02:25:42.793Z,88639.00
2023-06-20T02:26:42.791Z,88641.00
2023-06-20T02:27:42.805Z,88635.00
2023-06-20T02:28:42.844Z,88635.00
2023-06-20T02:29:42.827Z,88637.00
2023-06-20T02:30:42.825Z,88635.00
2023-06-20T02:31:42.900Z,88635.00
2023-06-20T02:32:42.865Z,88635.00
2023-06-20T02:33:42.835Z,88637.00
2023-06-20T02:34:42.847Z,88637.00
2023-06-20T02:35:42.849Z,88633.00
2023-06-20T02:36:42.871Z,88631.00
2023-06-20T02:37:42.871Z,88631.00
2023-06-20T02:38:42.891Z,88635.00
2023-06-20T02:39:42.883Z,88639.00
2023-06-20T02:40:42.910Z,88637.00
2023-06-20T02:41:42.936Z,88637.00
2023-06-20T02:42:45.957Z,88641.00
2023-06-20T02:43:42.943Z,88641.00
2023-06-20T02:44:42.898Z,88642.00
2023-06-20T02:45:42.867Z,88642.00
2023-06-20T02:46:42.812Z,88637.00
2023-06-20T02:47:42.813Z,88635.00
2023-06-20T02:48:42.785Z,88637.00
2023-06-20T02:49:42.760Z,88633.00
2023-06-20T02:50:42.784Z,88639.00
2023-06-20T02:51:42.715Z,88639.00
2023-06-20T02:52:42.692Z,88639.00
2023-06-20T02:53:42.671Z,88641.00
2023-06-20T02:54:42.656Z,88635.00
2023-06-20T02:55:42.643Z,88639.00
2023-06-20T02:56:42.619Z,88637.00
2023-06-20T02:57:42.610Z,88641.00
2023-06-20T02:58:42.577Z,88646.00
2023-06-20T02:59:42.564Z,88644.00
2023-06-20T03:00:42.534Z,88650.00
2023-06-20T03:01:42.569Z,88652.00
2023-06-20T03:02:42.604Z,88654.00
2023-06-20T03:03:42.568Z,88656.00
2023-06-20T03:04:42.477Z,88658.00
2023-06-20T03:05:42.448Z,88648.00
2023-06-20T03:06:42.429Z,88650.00
2023-06-20T03:07:42.406Z,88652.00
2023-06-20T03:08:42.411Z,88650.00
2023-06-20T03:09:42.375Z,88654.00
2023-06-20T03:10:42.380Z,88650.00
2023-06-20T03:11:42.350Z,88652.00
2023-06-20T03:12:42.354Z,88654.00
2023-06-20T03:13:42.329Z,88652.00
2023-06-20T03:14:42.318Z,88652.00
2023-06-20T03:15:42.323Z,88656.00
2023-06-20T03:16:42.337Z,88654.00
2023-06-20T03:17:42.268Z,88654.00
2023-06-20T03:18:42.225Z,88656.00
2023-06-20T03:19:42.200Z,88660.00
2023-06-20T03:20:42.194Z,88658.00
2023-06-20T03:21:42.157Z,88658.00
2023-06-20T03:22:42.131Z,88660.00
2023-06-20T03:23:42.118Z,88656.00
2023-06-20T03:24:42.236Z,88658.00
2023-06-20T03:25:42.080Z,88656.00
2023-06-20T03:26:42.089Z,88656.00
2023-06-20T03:27:42.054Z,88656.00
2023-06-20T03:28:42.012Z,88658.00
2023-06-20T03:29:41.998Z,88662.00
2023-06-20T03:30:41.967Z,88666.00
2023-06-20T03:31:41.971Z,88662.00
2023-06-20T03:32:41.981Z,88660.00
2023-06-20T03:33:41.924Z,88660.00
2023-06-20T03:34:41.896Z,88654.00
2023-06-20T03:35:41.866Z,88652.00
2023-06-20T03:36:41.855Z,88652.00
2023-06-20T03:37:41.836Z,88652.00
2023-06-20T03:38:41.872Z,88650.00
2023-06-20T03:39:41.909Z,88652.00
2023-06-20T03:40:41.882Z,88650.00
2023-06-20T03:41:41.874Z,88652.00
2023-06-20T03:42:41.915Z,88658.00
2023-06-20T03:43:41.896Z,88652.00
2023-06-20T03:44:41.916Z,88656.00
2023-06-20T03:45:41.909Z,88654.00
2023-06-20T03:46:41.977Z,88652.00
2023-06-20T03:47:41.942Z,88656.00
2023-06-20T03:48:41.939Z,88658.00
2023-06-20T03:49:44.680Z,88656.00
2023-06-20T03:50:41.936Z,88660.00
2023-06-20T03:51:41.891Z,88662.00
2023-06-20T03:52:41.909Z,88664.00
2023-06-20T03:53:41.857Z,88668.00
2023-06-20T03:54:41.882Z,88668.00
2023-06-20T03:55:41.905Z,88670.00
2023-06-20T03:56:41.815Z,88670.00
2023-06-20T03:57:41.876Z,88670.00
2023-06-20T03:58:41.887Z,88668.00
2023-06-20T03:59:41.822Z,88668.00
2023-06-20T04:00:41.736Z,88664.00
2023-06-20T04:01:41.704Z,88662.00
2023-06-20T04:02:41.710Z,88662.00
2023-06-20T04:03:41.662Z,88662.00
2023-06-20T04:04:41.648Z,88660.00
2023-06-20T04:05:41.629Z,88660.00
2023-06-20T04:06:41.665Z,88664.00
2023-06-20T04:07:41.577Z,88660.00
2023-06-20T04:08:41.599Z,88666.00
2023-06-20T04:09:41.989Z,88664.00
2023-06-20T04:10:41.635Z,88662.00
2023-06-20T04:11:41.522Z,88666.00
2023-06-20T04:12:41.593Z,88668.00
2023-06-20T04:13:41.488Z,88674.00
2023-06-20T04:14:41.524Z,88674.00
2023-06-20T04:15:41.474Z,88674.00
2023-06-20T04:16:41.402Z,88676.00
2023-06-20T04:17:41.386Z,88676.00
2023-06-20T04:18:41.360Z,88678.00
2023-06-20T04:19:41.320Z,88678.00
2023-06-20T04:20:41.299Z,88680.00
2023-06-20T04:21:41.280Z,88676.00
2023-06-20T04:22:41.263Z,88676.00
2023-06-20T04:23:41.230Z,88676.00
2023-06-20T04:24:41.287Z,88678.00
2023-06-20T04:25:41.200Z,88676.00
2023-06-20T04:26:41.178Z,88678.00
2023-06-20T04:27:41.168Z,88676.00
2023-06-20T04:28:41.201Z,88676.00
2023-06-20T04:29:41.138Z,88676.00
2023-06-20T04:30:41.089Z,88674.00
2023-06-20T04:31:41.070Z,88678.00
2023-06-20T04:32:41.090Z,88676.00
2023-06-20T04:33:41.020Z,88676.00
2023-06-20T04:34:40.985Z,88674.00
2023-06-20T04:35:40.972Z,88678.00
2023-06-20T04:36:40.924Z,88674.00
2023-06-20T04:37:40.913Z,88678.00
2023-06-20T04:38:40.894Z,88676.00
2023-06-20T04:39:40.874Z,88684.00
2023-06-20T04:40:40.847Z,88684.00
2023-06-20T04:41:40.841Z,88684.00
2023-06-20T04:42:40.813Z,88680.00
2023-06-20T04:43:40.815Z,88680.00
2023-06-20T04:44:40.790Z,88684.00
2023-06-20T04:45:40.782Z,88680.00
2023-06-20T04:46:40.746Z,88678.00
2023-06-20T04:47:40.824Z,88680.00
2023-06-20T04:48:40.818Z,88686.00
2023-06-20T04:49:40.694Z,88688.00
2023-06-20T04:50:40.668Z,88688.00
2023-06-20T04:51:40.652Z,88688.00
2023-06-20T04:52:40.621Z,88686.00
2023-06-20T04:53:40.603Z,88686.00
2023-06-20T04:54:40.600Z,88682.00
2023-06-20T04:55:40.554Z,88684.00
2023-06-20T04:56:40.538Z,88688.00
2023-06-20T04:57:40.524Z,88684.00
2023-06-20T04:58:40.498Z,88688.00
2023-06-20T04:59:40.474Z,88697.00
2023-06-20T05:00:40.442Z,88699.00
2023-06-20T05:01:40.487Z,88692.00
2023-06-20T05:02:40.460Z,88695.00
2023-06-20T05:03:40.437Z,88690.00
2023-06-20T05:04:40.373Z,88690.00
2023-06-20T05:05:40.339Z,88693.00
2023-06-20T05:06:40.348Z,88697.00
2023-06-20T05:07:40.309Z,88697.00
2023-06-20T05:08:40.281Z,88697.00
2023-06-20T05:09:40.272Z,88693.00
2023-06-20T05:10:40.242Z,88692.00
2023-06-20T05:11:40.221Z,88695.00
2023-06-20T05:12:40.204Z,88693.00
2023-06-20T05:13:40.197Z,88699.00
2023-06-20T05:14:40.174Z,88699.00
2023-06-20T05:15:40.151Z,88697.00
2023-06-20T05:16:40.156Z,88699.00
2023-06-20T05:17:40.143Z,88697.00
2023-06-20T05:18:40.221Z,88693.00
2023-06-20T05:19:40.088Z,88692.00
2023-06-20T05:20:40.058Z,88690.00
2023-06-20T05:21:40.024Z,88692.00
2023-06-20T05:22:40.014Z,88688.00
2023-06-20T05:23:40.027Z,88688.00
2023-06-20T05:24:40.107Z,88690.00
2023-06-20T05:25:39.982Z,88684.00
2023-06-20T05:26:39.987Z,88682.00
2023-06-20T05:27:39.943Z,88682.00
2023-06-20T05:28:39.947Z,88684.00
2023-06-20T05:29:39.910Z,88686.00
2023-06-20T05:30:39.874Z,88688.00
2023-06-20T05:31:39.938Z,88690.00
2023-06-20T05:32:39.984Z,88699.00
2023-06-20T05:33:39.893Z,88693.00
2023-06-20T05:34:39.839Z,88693.00
2023-06-20T05:35:39.809Z,88693.00
2023-06-20T05:36:39.806Z,88693.00
2023-06-20T05:37:39.779Z,88690.00
2023-06-20T05:38:39.790Z,88690.00
2023-06-20T05:39:39.752Z,88686.00
2023-06-20T05:40:39.748Z,88688.00
2023-06-20T05:41:39.701Z,88690.00
2023-06-20T05:42:39.689Z,88686.00
2023-06-20T05:43:39.641Z,88690.00
2023-06-20T05:44:39.622Z,88690.00
2023-06-20T05:45:40.822Z,88695.00
2023-06-20T05:46:39.671Z,88695.00
2023-06-20T05:47:39.636Z,88695.00
2023-06-20T05:48:39.571Z,88697.00
2023-06-20T05:49:39.507Z,88701.00
2023-06-20T05:50:39.463Z,88699.00
2023-06-20T05:51:39.433Z,88699.00
2023-06-20T05:52:39.441Z,88695.00
2023-06-20T05:53:39.406Z,88697.00
2023-06-20T05:54:40.020Z,88697.00
2023-06-20T05:55:39.347Z,88695.00
2023-06-20T05:56:39.345Z,88695.00
2023-06-20T05:57:39.311Z,88701.00
2023-06-20T05:58:39.373Z,88701.00
2023-06-20T05:59:39.275Z,88703.00
2023-06-20T06:00:39.206Z,88695.00
2023-06-20T06:01:39.248Z,88701.00
2023-06-20T06:02:39.209Z,88701.00
2023-06-20T06:03:39.384Z,88695.00
2023-06-20T06:04:39.381Z,88695.00
2023-06-20T06:05:39.126Z,88692.00
2023-06-20T06:06:39.101Z,88695.00
2023-06-20T06:07:39.052Z,88693.00
2023-06-20T06:08:39.027Z,88693.00
2023-06-20T06:09:38.983Z,88692.00
2023-06-20T06:10:38.958Z,88697.00
2023-06-20T06:11:38.925Z,88699.00
2023-06-20T06:12:38.894Z,88693.00
2023-06-20T06:13:38.874Z,88695.00
2023-06-20T06:14:38.916Z,88697.00
2023-06-20T06:15:40.402Z,88697.00
2023-06-20T06:16:39.858Z,88697.00
2023-06-20T06:17:38.833Z,88697.00
2023-06-20T06:18:38.883Z,88697.00
2023-06-20T06:19:38.777Z,88703.00
2023-06-20T06:20:38.702Z,88697.00
2023-06-20T06:21:38.758Z,88701.00
2023-06-20T06:22:38.657Z,88701.00
2023-06-20T06:23:38.633Z,88701.00
2023-06-20T06:25:57.489Z,88699.00
2023-06-20T06:26:57.464Z,88699.00
2023-06-20T06:27:57.483Z,88697.00
2023-06-20T06:28:57.428Z,88695.00
2023-06-20T06:29:57.435Z,88697.00
2023-06-20T06:30:57.432Z,88693.00
2023-06-20T06:31:57.431Z,88692.00
2023-06-20T06:32:57.503Z,88692.00
2023-06-20T06:33:57.365Z,88695.00
2023-06-20T06:34:57.376Z,88701.00
2023-06-20T06:35:57.382Z,88703.00
2023-06-20T06:36:57.446Z,88701.00
2023-06-20T06:37:57.417Z,88699.00
2023-06-20T06:38:57.391Z,88701.00
2023-06-20T06:39:57.670Z,88699.00
2023-06-20T06:40:57.344Z,88695.00
2023-06-20T06:41:57.355Z,88693.00
2023-06-20T06:42:57.317Z,88693.00
2023-06-20T06:43:57.303Z,88695.00
2023-06-20T06:44:57.399Z,88701.00
2023-06-20T06:45:57.284Z,88705.00
2023-06-20T06:46:57.265Z,88703.00
2023-06-20T06:47:57.377Z,88705.00
2023-06-20T06:48:57.295Z,88703.00
2023-06-20T06:49:57.329Z,88703.00
2023-06-20T06:50:57.359Z,88703.00
2023-06-20T06:51:57.518Z,88701.00
2023-06-20T06:52:57.436Z,88709.00
2023-06-20T06:53:57.513Z,88703.00
2023-06-20T06:54:57.544Z,88705.00
2023-06-20T06:55:57.520Z,88705.00
2023-06-20T06:56:57.536Z,88703.00
2023-06-20T06:57:57.515Z,88701.00
2023-06-20T06:58:57.488Z,88703.00
2023-06-20T06:59:57.467Z,88705.00
2023-06-20T07:00:57.450Z,88703.00
2023-06-20T07:01:57.502Z,88705.00
2023-06-20T07:02:57.466Z,88699.00
2023-06-20T07:03:57.729Z,88697.00
2023-06-20T07:04:57.369Z,88703.00
2023-06-20T07:05:57.352Z,88701.00
2023-06-20T07:06:57.360Z,88697.00
2023-06-20T07:07:57.305Z,88693.00
2023-06-20T07:08:57.288Z,88692.00
2023-06-20T07:09:57.244Z,88692.00
2023-06-20T07:10:57.290Z,88693.00
2023-06-20T07:11:57.280Z,88693.00
2023-06-20T07:12:57.312Z,88693.00
2023-06-20T07:13:57.329Z,88690.00
2023-06-20T07:14:57.353Z,88692.00
2023-06-20T07:15:57.444Z,88686.00
2023-06-20T07:17:05.184Z,88688.00
2023-06-20T07:17:58.401Z,88690.00
2023-06-20T07:18:57.319Z,88692.00
2023-06-20T07:19:57.298Z,88692.00
2023-06-20T07:20:57.249Z,88688.00
2023-06-20T07:21:57.225Z,88688.00
2023-06-20T07:22:57.190Z,88690.00
2023-06-20T07:23:57.314Z,88692.00
2023-06-20T07:24:57.793Z,88692.00
2023-06-20T07:25:57.135Z,88688.00
2023-06-20T07:26:57.130Z,88693.00
2023-06-20T07:27:57.101Z,88692.00
2023-06-20T07:28:57.063Z,88693.00
2023-06-20T07:29:57.156Z,88690.00
2023-06-20T07:30:57.051Z,88688.00
2023-06-20T07:31:57.026Z,88686.00
2023-06-20T07:32:56.997Z,88688.00
2023-06-20T07:33:56.857Z,88690.00
2023-06-20T07:34:56.864Z,88688.00
2023-06-20T07:35:56.809Z,88690.00
2023-06-20T07:36:56.797Z,88686.00
2023-06-20T07:37:56.763Z,88692.00
2023-06-20T07:38:56.738Z,88688.00
2023-06-20T07:39:56.713Z,88688.00
2023-06-20T07:40:56.668Z,88684.00
2023-06-20T07:41:56.650Z,88682.00
2023-06-20T07:42:56.655Z,88680.00
2023-06-20T07:43:56.613Z,88680.00
2023-06-20T07:44:56.576Z,88676.00
2023-06-20T07:45:56.594Z,88672.00
2023-06-20T07:46:56.507Z,88674.00
2023-06-20T07:47:56.486Z,88666.00
2023-06-20T07:48:56.435Z,88674.00
2023-06-20T07:49:56.556Z,88672.00
2023-06-20T07:50:56.417Z,88668.00
2023-06-20T07:51:56.413Z,88666.00
2023-06-20T07:52:56.305Z,88670.00
2023-06-20T07:53:57.205Z,88662.00
2023-06-20T07:54:56.247Z,88662.00
2023-06-20T07:55:56.338Z,88662.00
2023-06-20T07:56:56.175Z,88664.00
2023-06-20T07:57:56.217Z,88664.00
2023-06-20T07:58:56.110Z,88664.00
2023-06-20T07:59:56.027Z,88660.00
2023-06-20T08:00:56.080Z,88660.00
2023-06-20T08:01:55.996Z,88658.00
2023-06-20T08:02:56.111Z,88668.00
2023-06-20T08:03:56.020Z,88662.00
2023-06-20T08:04:55.898Z,88664.00
2023-06-20T08:05:56.089Z,88658.00
2023-06-20T08:06:55.830Z,88658.00
2023-06-20T08:07:55.797Z,88664.00
2023-06-20T08:08:55.771Z,88656.00
2023-06-20T08:09:55.735Z,88658.00
2023-06-20T08:10:55.704Z,88658.00
2023-06-20T08:11:55.675Z,88648.00
2023-06-20T08:12:55.644Z,88650.00
2023-06-20T08:13:55.609Z,88654.00
2023-06-20T08:14:55.658Z,88652.00
2023-06-20T08:15:55.529Z,88652.00
2023-06-20T08:16:55.572Z,88652.00
2023-06-20T08:17:55.525Z,88656.00
2023-06-20T08:18:55.424Z,88664.00
2023-06-20T08:19:55.579Z,88650.00
2023-06-20T08:20:55.342Z,88658.00
2023-06-20T08:21:55.310Z,88652.00
2023-06-20T08:22:55.606Z,88656.00
2023-06-20T08:23:55.305Z,88650.00
2023-06-20T08:24:55.228Z,88650.00
2023-06-20T08:25:55.182Z,88648.00
2023-06-20T08:26:55.134Z,88652.00
2023-06-20T08:28:06.371Z,88648.00
2023-06-20T08:28:56.111Z,88652.00
2023-06-20T08:29:55.024Z,88648.00
2023-06-20T08:30:55.036Z,88644.00
2023-06-20T08:31:54.946Z,88644.00
2023-06-20T08:32:54.902Z,88641.00
2023-06-20T08:33:54.849Z,88639.00
2023-06-20T08:34:57.031Z,88642.00
2023-06-20T08:35:54.983Z,88646.00
2023-06-20T08:36:55.000Z,88648.00
2023-06-20T08:37:55.046Z,88642.00
2023-06-20T08:38:55.018Z,88639.00
2023-06-20T08:39:54.986Z,88641.00
2023-06-20T08:40:55.063Z,88635.00
2023-06-20T08:41:54.922Z,88637.00
2023-06-20T08:42:54.899Z,88637.00
2023-06-20T08:43:54.871Z,88639.00
2023-06-20T08:44:57.773Z,88635.00
2023-06-20T08:45:54.930Z,88635.00
2023-06-20T08:46:54.796Z,88631.00
2023-06-20T08:47:54.732Z,88631.00
2023-06-20T08:48:54.666Z,88629.00
2023-06-20T08:49:54.637Z,88635.00
2023-06-20T08:50:54.607Z,88629.00
2023-06-20T08:51:54.567Z,88629.00
2023-06-20T08:52:54.560Z,88627.00
2023-06-20T08:53:54.859Z,88627.00
2023-06-20T08:54:54.539Z,88623.00
2023-06-20T08:55:54.454Z,88623.00
2023-06-20T08:56:54.375Z,88629.00
2023-06-20T08:57:54.356Z,88625.00
2023-06-20T08:58:54.330Z,88625.00
2023-06-20T08:59:54.410Z,88621.00
2023-06-20T09:00:54.259Z,88625.00
2023-06-20T09:01:54.209Z,88627.00
2023-06-20T09:02:54.312Z,88623.00
2023-06-20T09:03:54.120Z,88623.00
2023-06-20T09:04:54.112Z,88621.00
2023-06-20T09:05:54.038Z,88625.00
2023-06-20T09:06:54.010Z,88625.00
2023-06-20T09:07:53.974Z,88629.00
2023-06-20T09:08:53.923Z,88623.00
2023-06-20T09:09:53.886Z,88625.00
2023-06-20T09:10:53.841Z,88621.00
2023-06-20T09:11:53.808Z,88613.00
2023-06-20T09:12:53.790Z,88621.00
2023-06-20T09:13:53.746Z,88613.00
2023-06-20T09:14:53.757Z,88611.00
2023-06-20T09:15:53.679Z,88609.00
2023-06-20T09:16:53.660Z,88615.00
2023-06-20T09:17:53.622Z,88609.00
2023-06-20T09:18:53.555Z,88607.00
2023-06-20T09:19:54.899Z,88619.00
2023-06-20T09:20:53.487Z,88619.00
2023-06-20T09:22:04.307Z,88607.00
2023-06-20T09:22:54.414Z,88607.00
2023-06-20T09:23:53.369Z,88615.00
2023-06-20T09:24:53.354Z,88619.00
2023-06-20T09:25:53.336Z,88609.00
2023-06-20T09:26:53.273Z,88609.00
2023-06-20T09:27:53.231Z,88607.00
2023-06-20T09:28:53.199Z,88609.00
2023-06-20T09:29:53.241Z,88603.00
2023-06-20T09:30:53.151Z,88601.00
2023-06-20T09:31:53.067Z,88603.00
2023-06-20T09:32:53.102Z,88617.00
2023-06-20T09:33:52.996Z,88605.00
2023-06-20T09:34:52.970Z,88613.00
2023-06-20T09:35:52.938Z,88603.00
2023-06-20T09:36:52.965Z,88607.00
2023-06-20T09:37:52.858Z,88607.00
2023-06-20T09:38:52.805Z,88601.00
2023-06-20T09:39:52.810Z,88605.00
2023-06-20T09:40:52.736Z,88605.00
2023-06-20T09:41:52.728Z,88595.00
2023-06-20T09:42:52.764Z,88597.00
2023-06-20T09:43:52.627Z,88601.00
2023-06-20T09:44:52.601Z,88601.00
2023-06-20T09:45:52.596Z,88603.00
2023-06-20T09:46:52.587Z,88599.00
2023-06-20T09:47:52.605Z,88601.00
2023-06-20T09:48:52.480Z,88601.00
2023-06-20T09:49:52.435Z,88597.00
2023-06-20T09:50:52.401Z,88601.00
2023-06-20T09:51:52.369Z,88603.00
2023-06-20T09:52:52.385Z,88597.00
2023-06-20T09:53:52.309Z,88593.00
2023-06-20T09:54:52.273Z,88595.00
2023-06-20T09:55:52.242Z,88588.00
2023-06-20T09:56:52.207Z,88593.00
2023-06-20T09:57:52.179Z,88595.00
2023-06-20T09:58:52.146Z,88588.00
2023-06-20T09:59:52.096Z,88590.00
2023-06-20T10:00:52.077Z,88586.00
2023-06-20T10:01:52.462Z,88586.00
2023-06-20T10:02:52.263Z,88582.00
2023-06-20T10:03:52.038Z,88582.00
2023-06-20T10:04:52.082Z,88580.00
2023-06-20T10:05:51.894Z,88570.00
2023-06-20T10:06:51.851Z,88584.00
2023-06-20T10:07:51.817Z,88586.00
2023-06-20T10:08:51.796Z,88590.00
2023-06-20T10:09:51.766Z,88580.00
2023-06-20T10:10:51.758Z,88588.00
2023-06-20T10:11:51.685Z,88588.00
2023-06-20T10:12:51.689Z,88590.00
2023-06-20T10:13:51.638Z,88580.00
2023-06-20T10:14:51.633Z,88578.00
2023-06-20T10:15:51.556Z,88580.00
2023-06-20T10:16:51.524Z,88588.00
2023-06-20T10:17:51.654Z,88582.00
2023-06-20T10:18:51.495Z,88576.00
2023-06-20T10:19:51.565Z,88576.00
2023-06-20T10:20:51.389Z,88574.00
2023-06-20T10:21:51.383Z,88576.00
2023-06-20T10:22:51.326Z,88578.00
2023-06-20T10:23:51.380Z,88576.00
2023-06-20T10:24:51.377Z,88578.00
2023-06-20T10:25:51.234Z,88580.00
2023-06-20T10:26:51.244Z,88576.00
2023-06-20T10:27:51.160Z,88578.00
2023-06-20T10:28:51.347Z,88576.00
2023-06-20T10:29:51.110Z,88570.00
2023-06-20T10:30:51.108Z,88574.00
2023-06-20T10:31:51.177Z,88574.00
2023-06-20T10:32:51.139Z,88578.00
2023-06-20T10:33:51.039Z,88572.00
2023-06-20T10:34:51.046Z,88576.00
2023-06-20T10:35:51.762Z,88574.00
2023-06-20T10:36:51.014Z,88568.00
2023-06-20T10:37:51.020Z,88574.00
2023-06-20T10:38:50.944Z,88570.00
2023-06-20T10:39:50.970Z,88568.00
2023-06-20T10:40:50.925Z,88566.00
2023-06-20T10:41:50.922Z,88562.00
2023-06-20T10:42:50.880Z,88562.00
2023-06-20T10:43:50.885Z,88558.00
2023-06-20T10:44:50.856Z,88564.00
2023-06-20T10:45:50.899Z,88554.00
2023-06-20T10:46:50.820Z,88558.00
2023-06-20T10:47:50.883Z,88552.00
2023-06-20T10:48:50.792Z,88552.00
2023-06-20T10:49:51.250Z,88554.00
2023-06-20T10:50:50.781Z,88550.00
2023-06-20T10:51:50.802Z,88548.00
2023-06-20T10:52:50.728Z,88548.00
2023-06-20T10:53:50.699Z,88552.00
2023-06-20T10:54:50.679Z,88548.00
2023-06-20T10:55:50.716Z,88550.00
2023-06-20T10:56:50.594Z,88544.00
2023-06-20T10:57:50.574Z,88548.00
2023-06-20T10:58:50.531Z,88546.00
2023-06-20T10:59:50.776Z,88552.00
2023-06-20T11:00:50.472Z,88550.00
2023-06-20T11:01:50.446Z,88544.00
2023-06-20T11:02:50.574Z,88542.00
2023-06-20T11:03:50.406Z,88544.00
2023-06-20T11:04:50.339Z,88548.00
2023-06-20T11:05:50.308Z,88546.00
2023-06-20T11:06:50.295Z,88546.00
2023-06-20T11:07:52.142Z,88542.00
2023-06-20T11:08:50.245Z,88546.00
2023-06-20T11:09:50.192Z,88548.00
2023-06-20T11:10:50.153Z,88548.00
2023-06-20T11:11:50.152Z,88544.00
2023-06-20T11:12:50.102Z,88546.00
2023-06-20T11:13:50.099Z,88542.00
2023-06-20T11:14:50.022Z,88542.00
2023-06-20T11:15:50.029Z,88542.00
2023-06-20T11:16:50.014Z,88536.00
2023-06-20T11:17:50.849Z,88544.00
2023-06-20T11:18:50.113Z,88544.00
2023-06-20T11:19:49.863Z,88542.00
2023-06-20T11:20:49.801Z,88544.00
2023-06-20T11:21:49.755Z,88538.00
2023-06-20T11:22:49.728Z,88546.00
2023-06-20T11:23:49.653Z,88544.00
2023-06-20T11:24:49.925Z,88538.00
2023-06-20T11:25:49.588Z,88536.00
2023-06-20T11:26:49.656Z,88540.00
2023-06-20T11:27:49.690Z,88533.00
2023-06-20T11:28:52.567Z,88540.00
2023-06-20T11:29:50.829Z,88536.00
2023-06-20T11:30:49.455Z,88540.00
2023-06-20T11:31:49.367Z,88540.00
2023-06-20T11:32:49.430Z,88535.00
2023-06-20T11:33:49.305Z,88536.00
2023-06-20T11:34:49.268Z,88536.00
2023-06-20T11:35:49.213Z,88536.00
2023-06-20T11:36:49.162Z,88536.00
2023-06-20T11:37:49.129Z,88536.00
2023-06-20T11:38:49.110Z,88536.00
2023-06-20T11:39:49.084Z,88535.00
2023-06-20T11:40:49.036Z,88542.00
2023-06-20T11:41:49.001Z,88533.00
2023-06-20T11:42:48.972Z,88533.00
2023-06-20T11:43:48.901Z,88538.00
2023-06-20T11:44:48.864Z,88538.00
2023-06-20T11:45:48.840Z,88535.00